Time;durP1;ratioP1;P1;durP2;ratioP2;P2;SDS_P1;SDS_P2;PMS_P1;PMS_P2;Temp;Humidity;BMP_temperature;BMP_pressure;BME280_temperature;BME280_humidity;BME280_pressure;Samples;Min_cycle;Max_cycle;Signal;HPM_P1;HPM_P2
2022/07/19 00:00:01;;;;;;;12.00;6.93;;;;;;;;;;5094276;28;20475;-64
2022/07/19 00:02:28;;;;;;;11.97;8.10;;;;;;;;;;5094210;28;20447;-64
2022/07/19 00:04:55;;;;;;;8.63;7.07;;;;;;;;;;5093903;28;20443;-63
2022/07/19 00:07:22;;;;;;;10.07;7.10;;;;;;;;;;5094131;28;20439;-64
2022/07/19 00:09:51;;;;;;;9.00;6.60;;;;;;;;;;5094072;28;20943;-64
2022/07/19 00:12:18;;;;;;;9.63;6.23;;;;;;;;;;5094140;28;20430;-63
2022/07/19 00:14:45;;;;;;;8.20;6.40;;;;;;;;;;5093632;28;20534;-63
2022/07/19 00:17:13;;;;;;;9.47;7.40;;;;;;;;;;5094078;28;20558;-63
2022/07/19 00:19:40;;;;;;;8.30;6.60;;;;;;;;;;5093479;28;20482;-64
2022/07/19 00:22:07;;;;;;;9.00;6.60;;;;;;;;;;5094168;28;20449;-63
2022/07/19 00:24:34;;;;;;;13.50;6.80;;;;;;;;;;5093616;28;20446;-64
2022/07/19 00:27:03;;;;;;;9.33;7.03;;;;;;;;;;5093582;28;20529;-63
2022/07/19 00:29:30;;;;;;;12.83;7.20;;;;;;;;;;5093435;28;20447;-63
2022/07/19 00:31:57;;;;;;;7.83;6.63;;;;;;;;;;5093814;28;20765;-64
2022/07/19 00:34:24;;;;;;;10.90;6.87;;;;;;;;;;5093384;28;20533;-64
2022/07/19 00:36:52;;;;;;;9.47;6.90;;;;;;;;;;5094231;28;20526;-64
2022/07/19 00:39:19;;;;;;;8.70;6.50;;;;;;;;;;5093556;28;20495;-64
2022/07/19 00:41:46;;;;;;;12.13;7.80;;;;;;;;;;5093977;28;20443;-64
2022/07/19 00:44:15;;;;;;;7.23;6.27;;;;;;;;;;5093857;28;20522;-64
2022/07/19 00:46:42;;;;;;;12.50;7.07;;;;;;;;;;5093642;28;20448;-64
2022/07/19 00:49:09;;;;;;;9.67;6.80;;;;;;;;;;5093521;28;20448;-63
2022/07/19 00:51:37;;;;;;;12.20;7.10;;;;;;;;;;5093259;28;21014;-64
2022/07/19 00:54:05;;;;;;;7.43;6.60;;;;;;;;;;5093279;28;20447;-64
2022/07/19 00:56:33;;;;;;;8.80;6.90;;;;;;;;;;5093257;28;20531;-64
2022/07/19 00:59:01;;;;;;;13.57;7.30;;;;;;;;;;5093376;28;20477;-64
2022/07/19 01:01:30;;;;;;;10.07;7.10;;;;;;;;;;5093228;28;20508;-64
2022/07/19 01:03:58;;;;;;;8.63;7.30;;;;;;;;;;5093128;28;20534;-64
2022/07/19 01:06:25;;;;;;;10.30;6.97;;;;;;;;;;5093487;28;20470;-64
2022/07/19 01:08:52;;;;;;;9.30;6.73;;;;;;;;;;5093335;28;20486;-64
2022/07/19 01:11:19;;;;;;;11.93;8.93;;;;;;;;;;5093334;28;20447;-64
2022/07/19 01:13:47;;;;;;;9.57;7.10;;;;;;;;;;5093344;28;20449;-64
2022/07/19 01:16:14;;;;;;;9.47;6.53;;;;;;;;;;5093710;28;21017;-64
2022/07/19 01:18:43;;;;;;;9.40;6.87;;;;;;;;;;5093659;28;20939;-64
2022/07/19 01:21:17;;;;;;;10.77;6.90;;;;;;;;;;5093574;28;20450;-64
2022/07/19 01:23:44;;;;;;;7.70;5.47;;;;;;;;;;5093155;28;20517;-64
2022/07/19 01:26:11;;;;;;;6.00;5.30;;;;;;;;;;5093245;28;20499;-64
2022/07/19 01:28:39;;;;;;;6.60;5.43;;;;;;;;;;5093481;28;20470;-64
2022/07/19 01:31:06;;;;;;;9.27;5.53;;;;;;;;;;5093253;28;20456;-63
2022/07/19 01:33:33;;;;;;;11.23;5.63;;;;;;;;;;5093197;28;20458;-63
2022/07/19 01:36:00;;;;;;;7.40;5.27;;;;;;;;;;5093152;28;20448;-64
2022/07/19 01:38:29;;;;;;;6.57;4.77;;;;;;;;;;5096188;28;20486;-63
2022/07/19 01:40:59;;;;;;;9.23;5.17;;;;;;;;;;5096768;28;20822;-64
2022/07/19 01:43:26;;;;;;;8.73;5.40;;;;;;;;;;5097189;28;20449;-63
2022/07/19 01:45:54;;;;;;;9.60;5.83;;;;;;;;;;5096782;28;20955;-63
2022/07/19 01:48:21;;;;;;;5.07;4.40;;;;;;;;;;5096838;28;20443;-63
2022/07/19 01:50:48;;;;;;;5.10;4.70;;;;;;;;;;5096382;28;20518;-64
2022/07/19 01:53:15;;;;;;;6.87;5.20;;;;;;;;;;5096732;28;20771;-64
2022/07/19 01:55:44;;;;;;;8.63;4.70;;;;;;;;;;5096868;28;20453;-64
2022/07/19 01:58:11;;;;;;;7.83;4.90;;;;;;;;;;5096639;28;20447;-63
2022/07/19 02:00:38;;;;;;;7.67;4.77;;;;;;;;;;5096735;28;20484;-63
2022/07/19 02:03:05;;;;;;;6.30;5.70;;;;;;;;;;5096626;28;20774;-64
2022/07/19 02:05:32;;;;;;;7.40;5.03;;;;;;;;;;5096416;28;20445;-63
2022/07/19 02:08:01;;;;;;;7.23;4.83;;;;;;;;;;5096419;28;20438;-63
2022/07/19 02:10:28;;;;;;;6.20;5.00;;;;;;;;;;5096512;28;20545;-63
2022/07/19 02:12:57;;;;;;;10.97;5.00;;;;;;;;;;5096073;28;20450;-63
2022/07/19 02:15:24;;;;;;;5.93;5.13;;;;;;;;;;5096020;28;20528;-64
2022/07/19 02:17:52;;;;;;;11.23;5.07;;;;;;;;;;5096287;28;20513;-63
2022/07/19 02:20:19;;;;;;;8.03;5.17;;;;;;;;;;5095722;28;20481;-63
2022/07/19 02:22:46;;;;;;;7.17;5.37;;;;;;;;;;5096199;28;20443;-63
2022/07/19 02:25:14;;;;;;;8.27;5.50;;;;;;;;;;5096048;28;20544;-63
2022/07/19 02:27:41;;;;;;;11.97;5.93;;;;;;;;;;5096290;28;20536;-63
2022/07/19 02:30:11;;;;;;;6.93;5.20;;;;;;;;;;5096093;28;20532;-63
2022/07/19 02:32:38;;;;;;;11.90;5.00;;;;;;;;;;5095758;28;20995;-63
2022/07/19 02:35:07;;;;;;;8.87;5.50;;;;;;;;;;5096398;28;20438;-63
2022/07/19 02:37:34;;;;;;;10.50;5.00;;;;;;;;;;5096655;28;20434;-63
2022/07/19 02:40:01;;;;;;;11.23;5.90;;;;;;;;;;5095761;28;20982;-63
2022/07/19 02:42:28;;;;;;;6.70;5.60;;;;;;;;;;5095779;28;20527;-63
2022/07/19 02:44:55;;;;;;;7.50;5.03;;;;;;;;;;5095356;28;20524;-63
2022/07/19 02:47:24;;;;;;;6.90;5.70;;;;;;;;;;5095704;28;20547;-63
2022/07/19 02:49:51;;;;;;;11.10;6.20;;;;;;;;;;5094786;28;20470;-64
2022/07/19 02:52:18;;;;;;;15.67;6.30;;;;;;;;;;5095608;28;20525;-63
2022/07/19 02:54:46;;;;;;;9.77;6.80;;;;;;;;;;5095015;28;20960;-64
2022/07/19 02:57:13;;;;;;;12.07;6.67;;;;;;;;;;5095499;28;20525;-63
2022/07/19 02:59:40;;;;;;;10.40;5.37;;;;;;;;;;5095513;28;20565;-63
2022/07/19 03:02:07;;;;;;;8.00;6.10;;;;;;;;;;5095337;28;20437;-63
2022/07/19 03:04:36;;;;;;;9.80;6.00;;;;;;;;;;5095039;28;20534;-63
2022/07/19 03:07:03;;;;;;;11.47;5.90;;;;;;;;;;5095158;28;20444;-64
2022/07/19 03:09:31;;;;;;;13.73;6.87;;;;;;;;;;5095823;28;20795;-63
2022/07/19 03:11:58;;;;;;;8.23;5.93;;;;;;;;;;5095158;28;20445;-63
2022/07/19 03:14:27;;;;;;;7.87;5.60;;;;;;;;;;5095693;28;20444;-63
2022/07/19 03:16:54;;;;;;;11.30;5.90;;;;;;;;;;5095527;28;20476;-63
2022/07/19 03:19:21;;;;;;;10.80;5.47;;;;;;;;;;5094674;28;20443;-63
2022/07/19 03:21:50;;;;;;;9.83;6.17;;;;;;;;;;5094626;28;20934;-63
2022/07/19 03:24:17;;;;;;;8.60;5.67;;;;;;;;;;5095082;28;20874;-63
2022/07/19 03:26:44;;;;;;;9.00;5.07;;;;;;;;;;5095016;28;20437;-63
2022/07/19 03:29:12;;;;;;;11.50;5.47;;;;;;;;;;5094898;28;20445;-63
2022/07/19 03:31:39;;;;;;;6.20;4.73;;;;;;;;;;5094404;28;20446;-63
2022/07/19 03:34:06;;;;;;;11.93;5.90;;;;;;;;;;5094808;28;20444;-63
2022/07/19 03:36:33;;;;;;;7.90;5.40;;;;;;;;;;5094788;28;20882;-63
2022/07/19 03:39:02;;;;;;;10.43;5.67;;;;;;;;;;5094676;28;20438;-64
2022/07/19 03:41:29;;;;;;;10.20;5.40;;;;;;;;;;5094669;28;20984;-63
2022/07/19 03:43:56;;;;;;;6.13;4.90;;;;;;;;;;5095124;28;20524;-65
2022/07/19 03:46:24;;;;;;;11.63;5.63;;;;;;;;;;5094650;28;20444;-63
2022/07/19 03:48:51;;;;;;;11.97;5.57;;;;;;;;;;5094528;28;20473;-63
2022/07/19 03:51:19;;;;;;;11.40;5.73;;;;;;;;;;5094643;28;20441;-63
2022/07/19 03:53:46;;;;;;;10.57;5.00;;;;;;;;;;5094374;28;20520;-62
2022/07/19 03:56:15;;;;;;;12.80;5.87;;;;;;;;;;5094557;28;20456;-62
2022/07/19 03:58:42;;;;;;;6.60;5.10;;;;;;;;;;5094299;28;20434;-62
2022/07/19 04:01:10;;;;;;;11.10;6.20;;;;;;;;;;5094201;28;20480;-62
2022/07/19 04:03:38;;;;;;;6.63;5.13;;;;;;;;;;5092790;28;20455;-62
2022/07/19 04:06:05;;;;;;;8.13;5.50;;;;;;;;;;5093872;28;20922;-62
2022/07/19 04:08:32;;;;;;;8.30;5.23;;;;;;;;;;5094459;28;20859;-62
2022/07/19 04:11:00;;;;;;;6.57;5.43;;;;;;;;;;5093962;28;20527;-61
2022/07/19 04:13:28;;;;;;;7.47;5.63;;;;;;;;;;5094089;28;20531;-62
2022/07/19 04:15:56;;;;;;;10.57;6.40;;;;;;;;;;5093580;28;20560;-63
2022/07/19 04:18:23;;;;;;;9.60;6.07;;;;;;;;;;5094746;28;20452;-62
2022/07/19 04:20:50;;;;;;;9.17;6.27;;;;;;;;;;5093857;28;20562;-63
2022/07/19 04:23:17;;;;;;;7.97;5.63;;;;;;;;;;5093605;28;20441;-62
2022/07/19 04:25:44;;;;;;;12.03;6.30;;;;;;;;;;5093524;28;20532;-62
2022/07/19 04:28:12;;;;;;;12.53;6.50;;;;;;;;;;5093499;28;20997;-62
2022/07/19 04:30:40;;;;;;;11.57;6.70;;;;;;;;;;5093828;28;20536;-62
2022/07/19 04:33:08;;;;;;;8.10;5.63;;;;;;;;;;5093598;28;20528;-62
2022/07/19 04:35:36;;;;;;;9.30;5.90;;;;;;;;;;5092756;28;20534;-62
2022/07/19 04:38:03;;;;;;;9.10;5.60;;;;;;;;;;5093353;28;20548;-62
2022/07/19 04:40:30;;;;;;;7.37;5.90;;;;;;;;;;5093690;28;20558;-62
2022/07/19 04:42:57;;;;;;;6.43;5.67;;;;;;;;;;5093185;28;20981;-62
2022/07/19 04:45:24;;;;;;;9.13;5.60;;;;;;;;;;5093720;28;20445;-62
2022/07/19 04:47:53;;;;;;;10.10;5.80;;;;;;;;;;5093616;28;20449;-62
2022/07/19 04:50:20;;;;;;;10.13;5.97;;;;;;;;;;5093348;28;20540;-62
2022/07/19 04:52:48;;;;;;;11.33;5.93;;;;;;;;;;5093734;28;20524;-62
2022/07/19 04:55:15;;;;;;;6.37;5.77;;;;;;;;;;5093183;28;21031;-62
2022/07/19 04:57:42;;;;;;;7.40;5.73;;;;;;;;;;5093135;28;20473;-62
2022/07/19 05:00:11;;;;;;;6.10;4.70;;;;;;;;;;5093458;28;20563;-62
2022/07/19 05:02:38;;;;;;;15.53;5.30;;;;;;;;;;5093333;28;20514;-63
2022/07/19 05:05:07;;;;;;;7.03;4.73;;;;;;;;;;5093080;28;20532;-62
2022/07/19 05:07:35;;;;;;;6.90;5.50;;;;;;;;;;5093515;28;20544;-62
2022/07/19 05:10:02;;;;;;;10.40;5.27;;;;;;;;;;5093381;28;20986;-62
2022/07/19 05:12:29;;;;;;;12.80;5.83;;;;;;;;;;5094901;28;20522;-62
2022/07/19 05:14:58;;;;;;;12.27;5.07;;;;;;;;;;5097178;28;20538;-62
2022/07/19 05:17:25;;;;;;;9.23;5.97;;;;;;;;;;5097775;28;20548;-62
2022/07/19 05:19:53;;;;;;;13.17;5.97;;;;;;;;;;5097255;28;20530;-63
2022/07/19 05:22:22;;;;;;;13.03;5.73;;;;;;;;;;5096878;28;20446;-63
2022/07/19 05:24:49;;;;;;;12.60;6.97;;;;;;;;;;5097283;28;20935;-63
2022/07/19 05:27:17;;;;;;;9.40;5.20;;;;;;;;;;5096868;28;20526;-63
2022/07/19 05:29:44;;;;;;;6.83;4.67;;;;;;;;;;5097149;28;20447;-63
2022/07/19 05:32:11;;;;;;;7.80;4.90;;;;;;;;;;5097695;28;20454;-63
2022/07/19 05:34:38;;;;;;;5.87;5.07;;;;;;;;;;5097047;28;20446;-62
2022/07/19 05:37:06;;;;;;;6.93;5.23;;;;;;;;;;5096678;28;20465;-63
2022/07/19 05:39:34;;;;;;;13.10;8.60;;;;;;;;;;5096771;28;20543;-63
2022/07/19 05:42:02;;;;;;;9.17;6.50;;;;;;;;;;5096861;28;20513;-63
2022/07/19 05:44:29;;;;;;;13.37;5.13;;;;;;;;;;5096534;28;20525;-63
2022/07/19 05:46:56;;;;;;;12.03;5.60;;;;;;;;;;5096865;28;20481;-63
2022/07/19 05:49:23;;;;;;;10.83;5.13;;;;;;;;;;5096399;28;20449;-63
2022/07/19 05:51:50;;;;;;;7.43;4.57;;;;;;;;;;5096482;28;20447;-62
2022/07/19 05:54:18;;;;;;;13.10;11.50;;;;;;;;;;5096403;28;20875;-62
2022/07/19 05:56:46;;;;;;;10.40;5.57;;;;;;;;;;5096279;28;20924;-63
2022/07/19 05:59:14;;;;;;;6.83;4.77;;;;;;;;;;5096532;28;20784;-63
2022/07/19 06:01:41;;;;;;;23.80;5.40;;;;;;;;;;5096158;28;20475;-62
2022/07/19 06:04:08;;;;;;;6.60;4.97;;;;;;;;;;5096272;28;20435;-62
2022/07/19 06:06:36;;;;;;;12.53;6.27;;;;;;;;;;5096734;28;20435;-62
2022/07/19 06:09:04;;;;;;;11.10;6.40;;;;;;;;;;5096307;28;20852;-63
2022/07/19 06:11:32;;;;;;;17.40;6.23;;;;;;;;;;5096367;28;20486;-62
2022/07/19 06:14:01;;;;;;;10.90;4.77;;;;;;;;;;5096209;28;20468;-62
2022/07/19 06:16:28;;;;;;;13.40;6.70;;;;;;;;;;5096159;28;20471;-63
2022/07/19 06:18:55;;;;;;;11.20;5.93;;;;;;;;;;5096126;28;20440;-63
2022/07/19 06:21:23;;;;;;;7.70;5.30;;;;;;;;;;5096299;28;20486;-62
2022/07/19 06:23:50;;;;;;;12.60;4.90;;;;;;;;;;5094400;28;20442;-63
2022/07/19 06:26:18;;;;;;;8.73;5.63;;;;;;;;;;5096056;28;20448;-63
2022/07/19 06:28:45;;;;;;;7.03;4.60;;;;;;;;;;5095570;28;20440;-62
2022/07/19 06:31:14;;;;;;;6.07;5.07;;;;;;;;;;5095684;28;20540;-62
2022/07/19 06:33:42;;;;;;;9.27;6.40;;;;;;;;;;5095837;28;20536;-63
2022/07/19 06:36:09;;;;;;;9.80;7.30;;;;;;;;;;5096175;28;20502;-63
2022/07/19 06:38:36;;;;;;;7.23;4.10;;;;;;;;;;5095923;28;20797;-63
2022/07/19 06:41:04;;;;;;;10.53;4.60;;;;;;;;;;5095718;28;20571;-63
2022/07/19 06:43:31;;;;;;;6.37;3.90;;;;;;;;;;5095626;28;20528;-63
2022/07/19 06:45:58;;;;;;;5.17;4.27;;;;;;;;;;5095369;28;20540;-63
2022/07/19 06:48:27;;;;;;;5.30;3.30;;;;;;;;;;5095715;28;20445;-63
2022/07/19 06:50:54;;;;;;;6.63;3.60;;;;;;;;;;5095580;28;20536;-63
2022/07/19 06:53:21;;;;;;;7.37;4.23;;;;;;;;;;5095221;28;21018;-63
2022/07/19 06:55:49;;;;;;;8.60;6.80;;;;;;;;;;5096028;28;20468;-63
2022/07/19 06:58:16;;;;;;;12.03;10.57;;;;;;;;;;5095112;28;20447;-63
2022/07/19 07:00:44;;;;;;;7.70;5.40;;;;;;;;;;5094953;28;20568;-63
2022/07/19 07:03:11;;;;;;;5.73;3.70;;;;;;;;;;5095471;28;20522;-63
2022/07/19 07:05:40;;;;;;;5.40;3.13;;;;;;;;;;5095339;28;20537;-63
2022/07/19 07:08:07;;;;;;;5.73;4.43;;;;;;;;;;5094970;28;20496;-63
2022/07/19 07:10:34;;;;;;;7.53;3.60;;;;;;;;;;5095080;28;20459;-63
2022/07/19 07:13:01;;;;;;;6.33;3.70;;;;;;;;;;5094786;28;20443;-63
2022/07/19 07:15:29;;;;;;;10.07;4.17;;;;;;;;;;5094924;28;20477;-63
2022/07/19 07:17:56;;;;;;;5.07;4.43;;;;;;;;;;5095087;28;20422;-64
2022/07/19 07:20:23;;;;;;;7.63;3.87;;;;;;;;;;5094587;28;20441;-65
2022/07/19 07:22:52;;;;;;;7.00;3.47;;;;;;;;;;5095294;28;20454;-66
2022/07/19 07:25:19;;;;;;;5.83;3.80;;;;;;;;;;5094838;28;20939;-63
2022/07/19 07:27:46;;;;;;;7.43;3.57;;;;;;;;;;5094934;28;20447;-63
2022/07/19 07:30:13;;;;;;;6.80;5.00;;;;;;;;;;5094758;28;20499;-64
2022/07/19 07:32:41;;;;;;;11.43;3.77;;;;;;;;;;5095269;28;20515;-64
2022/07/19 07:35:08;;;;;;;5.63;3.60;;;;;;;;;;5094040;28;20484;-64
2022/07/19 07:37:35;;;;;;;8.63;3.37;;;;;;;;;;5094402;28;20945;-63
2022/07/19 07:40:04;;;;;;;8.20;3.70;;;;;;;;;;5094588;28;20584;-63
2022/07/19 07:42:32;;;;;;;6.80;3.40;;;;;;;;;;5094266;28;21027;-63
2022/07/19 07:45:00;;;;;;;4.60;3.03;;;;;;;;;;5094121;28;20451;-62
2022/07/19 07:47:28;;;;;;;8.30;3.13;;;;;;;;;;5094716;28;20447;-62
2022/07/19 07:49:55;;;;;;;4.67;2.90;;;;;;;;;;5094223;28;20480;-62
2022/07/19 07:52:22;;;;;;;7.63;3.47;;;;;;;;;;5094398;28;20422;-63
2022/07/19 07:54:51;;;;;;;5.80;3.80;;;;;;;;;;5094313;28;20472;-63
2022/07/19 07:57:21;;;;;;;6.00;3.20;;;;;;;;;;5094717;28;20551;-63
2022/07/19 07:59:48;;;;;;;10.27;3.43;;;;;;;;;;5094194;28;20440;-63
2022/07/19 08:02:15;;;;;;;4.20;3.27;;;;;;;;;;5094357;28;20562;-63
2022/07/19 08:04:42;;;;;;;7.20;3.23;;;;;;;;;;5093730;28;20502;-62
2022/07/19 08:07:09;;;;;;;5.53;4.03;;;;;;;;;;5094152;28;20448;-63
2022/07/19 08:09:37;;;;;;;4.40;3.10;;;;;;;;;;5093595;28;20450;-63
2022/07/19 08:12:04;;;;;;;7.63;2.90;;;;;;;;;;5094002;28;20446;-63
2022/07/19 08:14:33;;;;;;;4.77;3.60;;;;;;;;;;5093999;28;20425;-63
2022/07/19 08:17:00;;;;;;;3.83;2.53;;;;;;;;;;5093558;28;20822;-63
2022/07/19 08:19:27;;;;;;;6.13;3.03;;;;;;;;;;5094461;28;20776;-63
2022/07/19 08:21:54;;;;;;;5.10;3.50;;;;;;;;;;5093470;28;20542;-63
2022/07/19 08:24:22;;;;;;;4.10;3.70;;;;;;;;;;5093815;28;20597;-63
2022/07/19 08:26:49;;;;;;;5.07;3.60;;;;;;;;;;5093563;28;20494;-63
2022/07/19 08:29:16;;;;;;;3.50;2.97;;;;;;;;;;5093791;28;20523;-63
2022/07/19 08:31:44;;;;;;;3.53;3.00;;;;;;;;;;5093332;28;20477;-63
2022/07/19 08:34:12;;;;;;;7.67;4.50;;;;;;;;;;5093717;28;20438;-63
2022/07/19 08:36:39;;;;;;;27.83;15.40;;;;;;;;;;5093644;28;20451;-63
2022/07/19 08:39:06;;;;;;;6.20;3.70;;;;;;;;;;5094239;28;20458;-63
2022/07/19 08:41:35;;;;;;;8.17;3.10;;;;;;;;;;5093443;28;20485;-63
2022/07/19 08:44:03;;;;;;;5.07;3.30;;;;;;;;;;5094125;28;20443;-63
2022/07/19 08:46:30;;;;;;;7.70;3.00;;;;;;;;;;5092948;28;20447;-63
2022/07/19 08:48:59;;;;;;;6.60;2.80;;;;;;;;;;5093600;28;20446;-63
2022/07/19 08:51:27;;;;;;;7.30;3.20;;;;;;;;;;5093215;28;20935;-63
2022/07/19 08:53:54;;;;;;;3.77;3.30;;;;;;;;;;5093553;28;20799;-63
2022/07/19 08:59:06;;;;;;;7.90;3.83;;;;;;;;;;5093325;28;20945;-63
2022/07/19 09:01:34;;;;;;;4.10;2.67;;;;;;;;;;5093385;28;20565;-63
2022/07/19 09:04:10;;;;;;;10.10;7.57;;;;;;;;;;5093459;28;20479;-63
2022/07/19 09:06:44;;;;;;;10.20;5.87;;;;;;;;;;5093549;28;20421;-63
2022/07/19 09:09:13;;;;;;;5.37;2.67;;;;;;;;;;5094038;28;20833;-63
2022/07/19 09:11:48;;;;;;;4.40;2.90;;;;;;;;;;5093489;28;20449;-63
2022/07/19 09:14:16;;;;;;;5.07;2.37;;;;;;;;;;5093108;28;20421;-63
2022/07/19 09:16:57;;;;;;;4.20;2.90;;;;;;;;;;5093558;28;20444;-63
2022/07/19 09:19:27;;;;;;;7.70;2.97;;;;;;;;;;5093039;28;20436;-63
2022/07/19 09:21:55;;;;;;;4.90;3.37;;;;;;;;;;5092998;28;20482;-63
2022/07/19 09:24:23;;;;;;;5.13;3.13;;;;;;;;;;5093182;28;20451;-63
2022/07/19 09:27:00;;;;;;;4.67;2.80;;;;;;;;;;5093399;28;20525;-63
2022/07/19 09:29:28;;;;;;;3.60;2.77;;;;;;;;;;5093277;28;20475;-63
2022/07/19 09:32:04;;;;;;;4.60;2.80;;;;;;;;;;5093270;28;20443;-63
2022/07/19 09:34:33;;;;;;;3.40;3.10;;;;;;;;;;5093159;28;20429;-63
2022/07/19 09:37:10;;;;;;;2.63;2.43;;;;;;;;;;5092804;28;20532;-63
2022/07/19 09:39:39;;;;;;;5.10;3.13;;;;;;;;;;5092814;28;20535;-63
2022/07/19 09:42:06;;;;;;;8.77;5.70;;;;;;;;;;5092972;28;20472;-63
2022/07/19 09:44:34;;;;;;;4.93;3.67;;;;;;;;;;5092815;28;20946;-63
2022/07/19 09:47:01;;;;;;;6.10;3.57;;;;;;;;;;5093007;28;20531;-63
2022/07/19 09:49:28;;;;;;;4.67;3.10;;;;;;;;;;5092783;28;21006;-62
2022/07/19 09:51:57;;;;;;;8.03;4.13;;;;;;;;;;5093012;28;20480;-63
2022/07/19 09:54:26;;;;;;;5.53;3.00;;;;;;;;;;5092830;28;20481;-63
2022/07/19 09:56:54;;;;;;;4.90;3.20;;;;;;;;;;5092880;28;20469;-62
2022/07/19 09:59:22;;;;;;;5.40;3.60;;;;;;;;;;5095998;28;20444;-63
2022/07/19 10:01:50;;;;;;;4.87;3.10;;;;;;;;;;5096556;28;20565;-63
2022/07/19 10:04:19;;;;;;;9.00;3.50;;;;;;;;;;5096507;28;20451;-63
2022/07/19 10:06:47;;;;;;;5.20;3.30;;;;;;;;;;5096420;28;20796;-63
2022/07/19 10:09:16;;;;;;;9.70;3.90;;;;;;;;;;5096093;28;20479;-63
2022/07/19 10:11:43;;;;;;;4.40;3.00;;;;;;;;;;5095933;28;20526;-63
2022/07/19 10:14:11;;;;;;;4.83;2.90;;;;;;;;;;5096931;28;20454;-63
2022/07/19 10:16:45;;;;;;;3.50;2.93;;;;;;;;;;5096117;28;20530;-63
2022/07/19 10:19:17;;;;;;;2.60;2.40;;;;;;;;;;5095982;28;20893;-63
2022/07/19 10:21:45;;;;;;;6.03;3.20;;;;;;;;;;5095942;28;20956;-63
2022/07/19 10:24:12;;;;;;;3.57;3.10;;;;;;;;;;5096120;28;20464;-63
2022/07/19 10:26:42;;;;;;;4.53;2.77;;;;;;;;;;5095924;28;20432;-63
2022/07/19 10:29:10;;;;;;;4.43;2.87;;;;;;;;;;5096070;28;20483;-63
2022/07/19 10:31:37;;;;;;;6.60;3.30;;;;;;;;;;5096233;28;20463;-63
2022/07/19 10:34:05;;;;;;;10.60;3.37;;;;;;;;;;5095606;28;20992;-63
2022/07/19 10:36:33;;;;;;;3.17;2.87;;;;;;;;;;5095702;28;20444;-63
2022/07/19 10:39:19;;;;;;;4.40;2.70;;;;;;;;;;5095543;28;20603;-63
2022/07/19 10:42:01;;;;;;;4.57;2.80;;;;;;;;;;5095287;28;20437;-63
2022/07/19 10:44:29;;;;;;;7.47;3.00;;;;;;;;;;5095799;28;20520;-63
2022/07/19 10:46:56;;;;;;;11.10;3.30;;;;;;;;;;5095493;28;20868;-63
2022/07/19 10:49:43;;;;;;;4.30;3.63;;;;;;;;;;5095763;28;20539;-63
2022/07/19 10:52:29;;;;;;;5.37;2.80;;;;;;;;;;5095478;28;20432;-63
2022/07/19 10:55:11;;;;;;;3.00;2.80;;;;;;;;;;5095948;28;20482;-63
2022/07/19 10:57:38;;;;;;;3.17;2.87;;;;;;;;;;5095318;28;20468;-63
2022/07/19 11:00:17;;;;;;;5.20;4.70;;;;;;;;;;5095512;28;20431;-63
2022/07/19 11:02:44;;;;;;;5.03;3.77;;;;;;;;;;5094991;28;20495;-63
2022/07/19 11:05:21;;;;;;;4.80;2.90;;;;;;;;;;5095336;28;20459;-63
2022/07/19 11:07:49;;;;;;;5.50;2.60;;;;;;;;;;5095222;28;20428;-63
2022/07/19 11:10:22;;;;;;;5.30;2.43;;;;;;;;;;5094618;28;20440;-63
2022/07/19 11:12:50;;;;;;;4.97;2.50;;;;;;;;;;5095488;28;20431;-63
2022/07/19 11:15:18;;;;;;;6.17;3.33;;;;;;;;;;5094984;28;20440;-63
2022/07/19 11:17:52;;;;;;;3.67;2.70;;;;;;;;;;5095052;28;20428;-63
2022/07/19 11:20:20;;;;;;;7.83;2.70;;;;;;;;;;5094749;28;20529;-63
2022/07/19 11:22:48;;;;;;;5.20;2.97;;;;;;;;;;5095082;28;20561;-63
2022/07/19 11:25:16;;;;;;;3.87;2.60;;;;;;;;;;5094632;28;20533;-63
2022/07/19 11:27:44;;;;;;;7.27;2.80;;;;;;;;;;5094522;28;20439;-62
2022/07/19 11:30:13;;;;;;;3.57;3.27;;;;;;;;;;5095018;28;20521;-63
2022/07/19 11:32:42;;;;;;;3.87;3.53;;;;;;;;;;5095120;28;20857;-63
2022/07/19 11:35:11;;;;;;;5.10;3.40;;;;;;;;;;5094979;28;20467;-63
2022/07/19 11:37:39;;;;;;;3.63;2.30;;;;;;;;;;5094968;28;20988;-62
2022/07/19 11:40:07;;;;;;;7.40;2.40;;;;;;;;;;5094320;28;20956;-63
2022/07/19 11:42:35;;;;;;;2.60;2.40;;;;;;;;;;5094436;28;20523;-63
2022/07/19 11:45:09;;;;;;;4.37;3.97;;;;;;;;;;5094547;28;20435;-63
2022/07/19 11:47:37;;;;;;;6.57;2.60;;;;;;;;;;5094765;28;20445;-63
2022/07/19 11:50:06;;;;;;;4.20;2.57;;;;;;;;;;5094915;28;20799;-63
2022/07/19 11:52:50;;;;;;;3.23;2.40;;;;;;;;;;5094007;28;20459;-63
2022/07/19 11:55:18;;;;;;;3.00;2.67;;;;;;;;;;5094048;28;20539;-64
2022/07/19 11:57:45;;;;;;;3.83;2.17;;;;;;;;;;5094624;28;20444;-63
2022/07/19 12:00:13;;;;;;;4.03;3.63;;;;;;;;;;5094209;28;20440;-63
2022/07/19 12:02:54;;;;;;;4.93;2.80;;;;;;;;;;5093773;28;20473;-63
2022/07/19 12:05:22;;;;;;;2.73;2.37;;;;;;;;;;5094186;28;20440;-63
2022/07/19 12:07:50;;;;;;;4.83;2.37;;;;;;;;;;5094094;28;20433;-63
2022/07/19 12:10:34;;;;;;;2.40;2.20;;;;;;;;;;5094114;28;20497;-63
2022/07/19 12:13:01;;;;;;;8.80;2.53;;;;;;;;;;5094195;28;20476;-63
2022/07/19 12:15:28;;;;;;;5.13;2.53;;;;;;;;;;5094121;28;20813;-62
2022/07/19 12:17:56;;;;;;;3.23;2.50;;;;;;;;;;5094064;28;20445;-62
2022/07/19 12:20:25;;;;;;;3.00;2.77;;;;;;;;;;5094236;28;20781;-63
2022/07/19 12:22:52;;;;;;;5.03;2.77;;;;;;;;;;5092550;28;20514;-62
2022/07/19 12:25:34;;;;;;;5.13;2.57;;;;;;;;;;5094223;28;20459;-62
2022/07/19 12:28:02;;;;;;;10.63;2.80;;;;;;;;;;5093555;28;20869;-62
2022/07/19 12:30:29;;;;;;;4.87;2.60;;;;;;;;;;5093856;28;20537;-62
2022/07/19 12:33:07;;;;;;;4.33;2.90;;;;;;;;;;5093446;28;20447;-62
2022/07/19 12:35:43;;;;;;;3.30;2.57;;;;;;;;;;5094258;28;20440;-62
2022/07/19 12:38:11;;;;;;;4.00;2.43;;;;;;;;;;5093818;28;20423;-62
2022/07/19 12:40:39;;;;;;;3.60;2.80;;;;;;;;;;5093706;28;20445;-62
2022/07/19 12:43:06;;;;;;;4.57;2.70;;;;;;;;;;5093396;28;20481;-62
2022/07/19 12:45:34;;;;;;;5.43;2.97;;;;;;;;;;5093559;28;20959;-63
2022/07/19 12:48:02;;;;;;;4.43;3.40;;;;;;;;;;5093178;28;20441;-62
2022/07/19 12:50:30;;;;;;;5.53;3.10;;;;;;;;;;5093652;28;20446;-62
2022/07/19 12:53:00;;;;;;;5.23;2.70;;;;;;;;;;5093362;28;20503;-62
2022/07/19 12:55:28;;;;;;;2.80;2.60;;;;;;;;;;5093833;28;20453;-69
2022/07/19 12:57:56;;;;;;;5.13;3.00;;;;;;;;;;5093724;28;20484;-63
2022/07/19 13:00:24;;;;;;;3.60;2.53;;;;;;;;;;5093681;28;20537;-64
2022/07/19 13:02:52;;;;;;;4.03;2.57;;;;;;;;;;5093026;28;20479;-65
2022/07/19 13:05:19;;;;;;;5.70;3.47;;;;;;;;;;5093391;28;20468;-63
2022/07/19 13:07:47;;;;;;;6.40;4.80;;;;;;;;;;5093419;28;20520;-64
2022/07/19 13:10:16;;;;;;;4.97;2.93;;;;;;;;;;5093350;28;20471;-63
2022/07/19 13:12:43;;;;;;;6.27;2.87;;;;;;;;;;5093362;28;20639;-64
2022/07/19 13:15:11;;;;;;;9.17;3.00;;;;;;;;;;5092482;28;20434;-64
2022/07/19 13:17:39;;;;;;;6.07;2.27;;;;;;;;;;5092842;28;20434;-64
2022/07/19 13:20:07;;;;;;;4.27;2.70;;;;;;;;;;5092923;28;20538;-63
2022/07/19 13:22:34;;;;;;;6.63;3.10;;;;;;;;;;5093483;28;20441;-64
2022/07/19 13:25:02;;;;;;;3.50;2.53;;;;;;;;;;5092681;28;20905;-64
2022/07/19 13:27:30;;;;;;;4.00;2.87;;;;;;;;;;5093394;28;20486;-64
2022/07/19 13:29:58;;;;;;;6.93;2.90;;;;;;;;;;5092974;28;20487;-64
2022/07/19 13:32:25;;;;;;;5.10;2.80;;;;;;;;;;5093155;28;20483;-64
2022/07/19 13:34:52;;;;;;;6.27;2.93;;;;;;;;;;5097121;28;20446;-63
2022/07/19 13:37:19;;;;;;;6.17;3.47;;;;;;;;;;5096969;28;20523;-63
2022/07/19 13:39:46;;;;;;;5.13;3.40;;;;;;;;;;5096506;28;20490;-63
2022/07/19 13:42:14;;;;;;;6.30;2.80;;;;;;;;;;5096882;28;20523;-62
2022/07/19 13:44:42;;;;;;;7.90;2.73;;;;;;;;;;5097193;28;20549;-63
2022/07/19 13:47:09;;;;;;;3.10;2.73;;;;;;;;;;5096883;28;20808;-62
2022/07/19 13:49:36;;;;;;;5.17;3.00;;;;;;;;;;5096939;28;20453;-63
2022/07/19 13:52:04;;;;;;;8.77;2.93;;;;;;;;;;5096725;28;20439;-63
2022/07/19 13:54:31;;;;;;;11.83;9.40;;;;;;;;;;5096131;28;20460;-62
2022/07/19 13:56:59;;;;;;;4.73;3.13;;;;;;;;;;5096631;28;20856;-62
2022/07/19 13:59:26;;;;;;;5.90;3.40;;;;;;;;;;5096433;28;20435;-62
2022/07/19 14:01:55;;;;;;;5.93;3.03;;;;;;;;;;5096317;28;20451;-62
2022/07/19 14:04:22;;;;;;;3.17;2.87;;;;;;;;;;5096324;28;20467;-63
2022/07/19 14:06:49;;;;;;;7.00;2.90;;;;;;;;;;5096108;28;20462;-63
2022/07/19 14:09:16;;;;;;;4.80;3.00;;;;;;;;;;5096298;28;20527;-63
2022/07/19 14:11:44;;;;;;;5.80;3.10;;;;;;;;;;5096320;28;20519;-69
2022/07/19 14:14:12;;;;;;;10.73;3.87;;;;;;;;;;5095786;28;20444;-64
2022/07/19 14:16:39;;;;;;;5.27;3.33;;;;;;;;;;5096339;28;20542;-65
2022/07/19 14:19:08;;;;;;;7.30;3.57;;;;;;;;;;5096056;28;20443;-65
2022/07/19 14:21:35;;;;;;;4.73;3.13;;;;;;;;;;5096401;28;20528;-65
2022/07/19 14:24:03;;;;;;;7.73;3.40;;;;;;;;;;5095675;28;20487;-65
2022/07/19 14:26:30;;;;;;;3.07;2.80;;;;;;;;;;5095919;28;20929;-65
2022/07/19 14:28:57;;;;;;;5.63;3.30;;;;;;;;;;5096056;28;20444;-65
2022/07/19 14:31:25;;;;;;;2.97;2.67;;;;;;;;;;5095659;28;20534;-65
2022/07/19 14:33:52;;;;;;;2.93;2.70;;;;;;;;;;5096441;28;20475;-65
2022/07/19 14:36:21;;;;;;;6.93;2.70;;;;;;;;;;5095550;28;20992;-65
2022/07/19 14:38:48;;;;;;;3.30;2.70;;;;;;;;;;5095767;28;20518;-65
2022/07/19 14:41:15;;;;;;;4.03;2.77;;;;;;;;;;5095790;28;20564;-66
2022/07/19 14:43:42;;;;;;;3.93;2.67;;;;;;;;;;5095372;28;20596;-65
2022/07/19 14:46:09;;;;;;;4.40;2.67;;;;;;;;;;5094323;28;20519;-65
2022/07/19 14:48:37;;;;;;;6.03;3.07;;;;;;;;;;5095591;28;20462;-65